sim
Sign-in with your pilot id or email,
or register
Callsign
Passwort

Schedule Details

Flight Number: OEC612
Departure: Cologne Bonn Airport (EDDK) at Time
Arrival: Munich Airport (EDDM) at Time

Weather Information
Getting current METAR information for EDDK 190750Z 14007KT 110V170 CAVOK 16/07 Q1019 NOSIG
Getting current METAR information for EDDM 190750Z 09008KT 050V110 CAVOK 12/07 Q1020 NOSIG

Schedule Frequency

Route Map